sensor_id;sensor_type;location;lat;lon;timestamp;P1;durP1;ratioP1;P2;durP2;ratioP2
9773;SDS011;4926;42.670;23.316;2023-08-12T00:01:38;4.50;;;3.15;;
9773;SDS011;4926;42.670;23.316;2023-08-12T00:04:05;3.15;;;2.80;;
9773;SDS011;4926;42.670;23.316;2023-08-12T00:06:34;3.83;;;3.10;;
9773;SDS011;4926;42.670;23.316;2023-08-12T00:09:03;3.72;;;3.17;;
9773;SDS011;4926;42.670;23.316;2023-08-12T00:11:30;3.88;;;3.15;;
9773;SDS011;4926;42.670;23.316;2023-08-12T00:13:56;3.88;;;3.10;;
9773;SDS011;4926;42.670;23.316;2023-08-12T00:16:26;3.63;;;3.28;;
9773;SDS011;4926;42.670;23.316;2023-08-12T00:18:53;6.20;;;3.10;;
9773;SDS011;4926;42.670;23.316;2023-08-12T00:21:20;6.80;;;2.95;;
9773;SDS011;4926;42.670;23.316;2023-08-12T00:23:46;5.43;;;3.17;;
9773;SDS011;4926;42.670;23.316;2023-08-12T00:26:15;8.00;;;3.00;;
9773;SDS011;4926;42.670;23.316;2023-08-12T00:28:44;3.50;;;3.20;;
9773;SDS011;4926;42.670;23.316;2023-08-12T00:31:11;3.17;;;2.88;;
9773;SDS011;4926;42.670;23.316;2023-08-12T00:33:39;3.95;;;2.92;;
9773;SDS011;4926;42.670;23.316;2023-08-12T00:36:08;3.30;;;3.00;;
9773;SDS011;4926;42.670;23.316;2023-08-12T00:38:36;4.28;;;2.95;;
9773;SDS011;4926;42.670;23.316;2023-08-12T00:41:03;5.45;;;2.78;;
9773;SDS011;4926;42.670;23.316;2023-08-12T00:43:30;3.33;;;3.08;;
9773;SDS011;4926;42.670;23.316;2023-08-12T00:45:57;4.22;;;3.08;;
9773;SDS011;4926;42.670;23.316;2023-08-12T00:48:24;3.00;;;2.60;;
9773;SDS011;4926;42.670;23.316;2023-08-12T00:50:53;3.67;;;2.92;;
9773;SDS011;4926;42.670;23.316;2023-08-12T00:53:19;8.82;;;2.92;;
9773;SDS011;4926;42.670;23.316;2023-08-12T00:55:47;4.72;;;2.75;;
9773;SDS011;4926;42.670;23.316;2023-08-12T00:58:13;3.50;;;3.20;;
9773;SDS011;4926;42.670;23.316;2023-08-12T01:00:40;3.67;;;2.90;;
9773;SDS011;4926;42.670;23.316;2023-08-12T01:03:07;2.95;;;2.75;;
9773;SDS011;4926;42.670;23.316;2023-08-12T01:05:34;3.33;;;3.03;;
9773;SDS011;4926;42.670;23.316;2023-08-12T01:08:02;3.97;;;2.60;;
9773;SDS011;4926;42.670;23.316;2023-08-12T01:10:30;3.17;;;2.88;;
9773;SDS011;4926;42.670;23.316;2023-08-12T01:13:16;3.17;;;2.90;;
9773;SDS011;4926;42.670;23.316;2023-08-12T01:15:52;3.25;;;2.80;;
9773;SDS011;4926;42.670;23.316;2023-08-12T01:18:24;3.75;;;3.10;;
9773;SDS011;4926;42.670;23.316;2023-08-12T01:20:52;3.67;;;2.80;;
9773;SDS011;4926;42.670;23.316;2023-08-12T01:23:22;3.42;;;3.13;;
9773;SDS011;4926;42.670;23.316;2023-08-12T01:25:51;3.00;;;2.70;;
9773;SDS011;4926;42.670;23.316;2023-08-12T01:28:17;3.40;;;2.85;;
9773;SDS011;4926;42.670;23.316;2023-08-12T01:30:46;3.42;;;2.65;;
9773;SDS011;4926;42.670;23.316;2023-08-12T01:33:24;3.88;;;2.92;;
9773;SDS011;4926;42.670;23.316;2023-08-12T01:35:59;6.30;;;2.88;;
9773;SDS011;4926;42.670;23.316;2023-08-12T01:38:38;4.03;;;3.05;;
9773;SDS011;4926;42.670;23.316;2023-08-12T01:41:06;3.33;;;2.75;;
9773;SDS011;4926;42.670;23.316;2023-08-12T01:43:35;3.95;;;2.70;;
9773;SDS011;4926;42.670;23.316;2023-08-12T01:46:05;4.07;;;2.80;;
9773;SDS011;4926;42.670;23.316;2023-08-12T01:48:35;4.78;;;2.97;;
9773;SDS011;4926;42.670;23.316;2023-08-12T01:51:02;3.20;;;2.88;;
9773;SDS011;4926;42.670;23.316;2023-08-12T01:53:31;3.30;;;3.00;;
9773;SDS011;4926;42.670;23.316;2023-08-12T01:55:59;3.10;;;2.55;;
9773;SDS011;4926;42.670;23.316;2023-08-12T01:58:25;3.22;;;2.88;;
9773;SDS011;4926;42.670;23.316;2023-08-12T02:00:52;2.90;;;2.65;;
9773;SDS011;4926;42.670;23.316;2023-08-12T02:03:19;3.47;;;2.90;;
9773;SDS011;4926;42.670;23.316;2023-08-12T02:05:45;3.58;;;2.85;;
9773;SDS011;4926;42.670;23.316;2023-08-12T02:08:15;4.10;;;3.00;;
9773;SDS011;4926;42.670;23.316;2023-08-12T02:10:42;4.10;;;2.72;;
9773;SDS011;4926;42.670;23.316;2023-08-12T02:13:12;3.08;;;2.78;;
9773;SDS011;4926;42.670;23.316;2023-08-12T02:15:39;3.20;;;2.72;;
9773;SDS011;4926;42.670;23.316;2023-08-12T02:18:06;4.95;;;2.83;;
9773;SDS011;4926;42.670;23.316;2023-08-12T02:20:32;3.78;;;2.90;;
9773;SDS011;4926;42.670;23.316;2023-08-12T02:22:59;5.60;;;2.83;;
9773;SDS011;4926;42.670;23.316;2023-08-12T02:25:26;4.75;;;2.92;;
9773;SDS011;4926;42.670;23.316;2023-08-12T02:27:56;4.20;;;2.80;;
9773;SDS011;4926;42.670;23.316;2023-08-12T02:30:24;3.67;;;2.40;;
9773;SDS011;4926;42.670;23.316;2023-08-12T02:32:51;3.75;;;2.95;;
9773;SDS011;4926;42.670;23.316;2023-08-12T02:35:18;2.90;;;2.70;;
9773;SDS011;4926;42.670;23.316;2023-08-12T02:37:45;3.22;;;2.70;;
9773;SDS011;4926;42.670;23.316;2023-08-12T02:40:13;2.70;;;2.50;;
9773;SDS011;4926;42.670;23.316;2023-08-12T02:42:40;4.85;;;2.92;;
9773;SDS011;4926;42.670;23.316;2023-08-12T02:45:07;3.42;;;2.67;;
9773;SDS011;4926;42.670;23.316;2023-08-12T02:47:37;4.60;;;3.22;;
9773;SDS011;4926;42.670;23.316;2023-08-12T02:50:05;3.00;;;2.78;;
9773;SDS011;4926;42.670;23.316;2023-08-12T02:52:35;4.07;;;3.25;;
9773;SDS011;4926;42.670;23.316;2023-08-12T02:55:03;4.00;;;2.78;;
9773;SDS011;4926;42.670;23.316;2023-08-12T02:57:32;4.55;;;2.80;;
9773;SDS011;4926;42.670;23.316;2023-08-12T02:59:58;4.93;;;2.65;;
9773;SDS011;4926;42.670;23.316;2023-08-12T03:02:25;3.25;;;2.65;;
9773;SDS011;4926;42.670;23.316;2023-08-12T03:07:34;3.55;;;3.05;;
9773;SDS011;4926;42.670;23.316;2023-08-12T03:10:04;2.88;;;2.58;;
9773;SDS011;4926;42.670;23.316;2023-08-12T03:12:31;3.15;;;2.85;;
9773;SDS011;4926;42.670;23.316;2023-08-12T03:14:58;3.65;;;2.88;;
9773;SDS011;4926;42.670;23.316;2023-08-12T03:17:24;3.50;;;2.97;;
9773;SDS011;4926;42.670;23.316;2023-08-12T03:19:51;3.90;;;2.70;;
9773;SDS011;4926;42.670;23.316;2023-08-12T03:22:20;5.75;;;2.60;;
9773;SDS011;4926;42.670;23.316;2023-08-12T03:24:47;3.15;;;2.80;;
9773;SDS011;4926;42.670;23.316;2023-08-12T03:27:15;3.20;;;2.90;;
9773;SDS011;4926;42.670;23.316;2023-08-12T03:29:44;2.80;;;2.60;;
9773;SDS011;4926;42.670;23.316;2023-08-12T03:32:11;5.75;;;3.22;;
9773;SDS011;4926;42.670;23.316;2023-08-12T03:34:47;3.30;;;3.00;;
9773;SDS011;4926;42.670;23.316;2023-08-12T03:37:13;5.30;;;2.80;;
9773;SDS011;4926;42.670;23.316;2023-08-12T03:39:45;2.97;;;2.67;;
9773;SDS011;4926;42.670;23.316;2023-08-12T03:42:14;2.95;;;2.50;;
9773;SDS011;4926;42.670;23.316;2023-08-12T03:44:44;4.20;;;2.90;;
9773;SDS011;4926;42.670;23.316;2023-08-12T03:47:13;3.40;;;3.10;;
9773;SDS011;4926;42.670;23.316;2023-08-12T03:49:39;4.35;;;3.50;;
9773;SDS011;4926;42.670;23.316;2023-08-12T03:52:06;4.00;;;3.00;;
9773;SDS011;4926;42.670;23.316;2023-08-12T03:54:33;3.03;;;2.72;;
9773;SDS011;4926;42.670;23.316;2023-08-12T03:57:02;4.13;;;3.08;;
9773;SDS011;4926;42.670;23.316;2023-08-12T03:59:32;3.50;;;3.20;;
9773;SDS011;4926;42.670;23.316;2023-08-12T04:01:59;4.50;;;2.80;;
9773;SDS011;4926;42.670;23.316;2023-08-12T04:04:25;3.35;;;3.05;;
9773;SDS011;4926;42.670;23.316;2023-08-12T04:06:52;4.85;;;3.38;;
9773;SDS011;4926;42.670;23.316;2023-08-12T04:09:23;3.50;;;2.85;;
9773;SDS011;4926;42.670;23.316;2023-08-12T04:11:50;4.93;;;3.08;;
9773;SDS011;4926;42.670;23.316;2023-08-12T04:14:18;3.35;;;2.95;;
9773;SDS011;4926;42.670;23.316;2023-08-12T04:16:45;4.80;;;3.13;;
9773;SDS011;4926;42.670;23.316;2023-08-12T04:19:12;3.47;;;3.17;;
9773;SDS011;4926;42.670;23.316;2023-08-12T04:21:38;3.30;;;2.90;;
9773;SDS011;4926;42.670;23.316;2023-08-12T04:24:06;5.10;;;3.20;;
9773;SDS011;4926;42.670;23.316;2023-08-12T04:26:33;3.55;;;3.00;;
9773;SDS011;4926;42.670;23.316;2023-08-12T04:29:00;5.80;;;3.20;;
9773;SDS011;4926;42.670;23.316;2023-08-12T04:31:31;3.88;;;2.78;;
9773;SDS011;4926;42.670;23.316;2023-08-12T04:33:58;5.55;;;3.30;;
9773;SDS011;4926;42.670;23.316;2023-08-12T04:36:24;4.25;;;3.17;;
9773;SDS011;4926;42.670;23.316;2023-08-12T04:38:52;4.93;;;3.28;;
9773;SDS011;4926;42.670;23.316;2023-08-12T04:41:18;5.32;;;2.92;;
9773;SDS011;4926;42.670;23.316;2023-08-12T04:43:45;5.00;;;4.03;;
9773;SDS011;4926;42.670;23.316;2023-08-12T04:46:12;6.35;;;3.70;;
9773;SDS011;4926;42.670;23.316;2023-08-12T04:48:45;5.13;;;3.53;;
9773;SDS011;4926;42.670;23.316;2023-08-12T04:51:12;4.95;;;3.63;;
9773;SDS011;4926;42.670;23.316;2023-08-12T04:53:39;4.03;;;3.53;;
9773;SDS011;4926;42.670;23.316;2023-08-12T04:56:06;5.53;;;3.20;;
9773;SDS011;4926;42.670;23.316;2023-08-12T04:58:33;4.70;;;3.38;;
9773;SDS011;4926;42.670;23.316;2023-08-12T05:01:00;6.28;;;3.70;;
9773;SDS011;4926;42.670;23.316;2023-08-12T05:03:28;4.20;;;3.10;;
9773;SDS011;4926;42.670;23.316;2023-08-12T05:06:00;5.13;;;3.15;;
9773;SDS011;4926;42.670;23.316;2023-08-12T05:08:29;5.10;;;3.38;;
9773;SDS011;4926;42.670;23.316;2023-08-12T05:10:56;6.20;;;3.15;;
9773;SDS011;4926;42.670;23.316;2023-08-12T05:13:23;5.18;;;3.13;;
9773;SDS011;4926;42.670;23.316;2023-08-12T05:15:49;3.92;;;3.30;;
9773;SDS011;4926;42.670;23.316;2023-08-12T05:18:16;3.65;;;3.13;;
9773;SDS011;4926;42.670;23.316;2023-08-12T05:20:43;4.90;;;3.35;;
9773;SDS011;4926;42.670;23.316;2023-08-12T05:23:11;6.68;;;3.00;;
9773;SDS011;4926;42.670;23.316;2023-08-12T05:25:38;3.78;;;3.47;;
9773;SDS011;4926;42.670;23.316;2023-08-12T05:28:05;6.15;;;3.20;;
9773;SDS011;4926;42.670;23.316;2023-08-12T05:30:32;4.78;;;2.92;;
9773;SDS011;4926;42.670;23.316;2023-08-12T05:33:01;5.93;;;3.40;;
9773;SDS011;4926;42.670;23.316;2023-08-12T05:35:28;3.60;;;3.00;;
9773;SDS011;4926;42.670;23.316;2023-08-12T05:37:59;6.90;;;3.22;;
9773;SDS011;4926;42.670;23.316;2023-08-12T05:40:27;4.15;;;2.92;;
9773;SDS011;4926;42.670;23.316;2023-08-12T05:42:54;3.78;;;3.00;;
9773;SDS011;4926;42.670;23.316;2023-08-12T05:45:22;4.50;;;3.00;;
9773;SDS011;4926;42.670;23.316;2023-08-12T05:47:49;3.17;;;2.88;;
9773;SDS011;4926;42.670;23.316;2023-08-12T05:50:16;4.13;;;3.22;;
9773;SDS011;4926;42.670;23.316;2023-08-12T05:52:43;3.40;;;3.10;;
9773;SDS011;4926;42.670;23.316;2023-08-12T05:55:10;3.70;;;3.20;;
9773;SDS011;4926;42.670;23.316;2023-08-12T05:57:38;4.32;;;3.38;;
9773;SDS011;4926;42.670;23.316;2023-08-12T06:00:05;4.45;;;3.33;;
9773;SDS011;4926;42.670;23.316;2023-08-12T06:02:32;3.40;;;3.10;;
9773;SDS011;4926;42.670;23.316;2023-08-12T06:04:59;4.00;;;3.17;;
9773;SDS011;4926;42.670;23.316;2023-08-12T06:07:26;7.25;;;3.85;;
9773;SDS011;4926;42.670;23.316;2023-08-12T06:09:54;5.28;;;3.35;;
9773;SDS011;4926;42.670;23.316;2023-08-12T06:12:21;4.07;;;3.67;;
9773;SDS011;4926;42.670;23.316;2023-08-12T06:14:50;6.10;;;3.72;;
9773;SDS011;4926;42.670;23.316;2023-08-12T06:17:17;7.22;;;3.63;;
9773;SDS011;4926;42.670;23.316;2023-08-12T06:19:44;4.05;;;3.55;;
9773;SDS011;4926;42.670;23.316;2023-08-12T06:22:10;6.70;;;4.07;;
9773;SDS011;4926;42.670;23.316;2023-08-12T06:24:37;8.40;;;3.92;;
9773;SDS011;4926;42.670;23.316;2023-08-12T06:27:04;4.80;;;3.80;;
9773;SDS011;4926;42.670;23.316;2023-08-12T06:29:34;5.20;;;4.07;;
9773;SDS011;4926;42.670;23.316;2023-08-12T06:32:02;10.48;;;3.70;;
9773;SDS011;4926;42.670;23.316;2023-08-12T06:34:29;10.93;;;4.22;;
9773;SDS011;4926;42.670;23.316;2023-08-12T06:36:55;6.28;;;4.10;;
9773;SDS011;4926;42.670;23.316;2023-08-12T06:39:22;6.15;;;4.05;;
9773;SDS011;4926;42.670;23.316;2023-08-12T06:41:48;7.88;;;4.22;;
9773;SDS011;4926;42.670;23.316;2023-08-12T06:44:16;8.18;;;3.28;;
9773;SDS011;4926;42.670;23.316;2023-08-12T06:46:42;5.97;;;3.40;;
9773;SDS011;4926;42.670;23.316;2023-08-12T06:49:10;3.63;;;3.03;;
9773;SDS011;4926;42.670;23.316;2023-08-12T06:51:37;3.92;;;2.83;;
9773;SDS011;4926;42.670;23.316;2023-08-12T06:54:04;4.20;;;3.40;;
9773;SDS011;4926;42.670;23.316;2023-08-12T06:56:31;3.50;;;3.20;;
9773;SDS011;4926;42.670;23.316;2023-08-12T06:58:58;3.63;;;3.33;;
9773;SDS011;4926;42.670;23.316;2023-08-12T07:01:24;5.93;;;3.38;;
9773;SDS011;4926;42.670;23.316;2023-08-12T07:03:52;3.05;;;2.75;;
9773;SDS011;4926;42.670;23.316;2023-08-12T07:06:20;6.18;;;3.17;;
9773;SDS011;4926;42.670;23.316;2023-08-12T07:08:48;3.15;;;2.95;;
9773;SDS011;4926;42.670;23.316;2023-08-12T07:11:16;4.90;;;3.25;;
9773;SDS011;4926;42.670;23.316;2023-08-12T07:13:43;4.38;;;3.22;;
9773;SDS011;4926;42.670;23.316;2023-08-12T07:16:13;8.18;;;3.10;;
9773;SDS011;4926;42.670;23.316;2023-08-12T07:18:41;4.22;;;2.92;;
9773;SDS011;4926;42.670;23.316;2023-08-12T07:21:08;3.55;;;2.90;;
9773;SDS011;4926;42.670;23.316;2023-08-12T07:23:36;8.20;;;3.38;;
9773;SDS011;4926;42.670;23.316;2023-08-12T07:26:03;3.88;;;3.08;;
9773;SDS011;4926;42.670;23.316;2023-08-12T07:28:41;4.35;;;3.38;;
9773;SDS011;4926;42.670;23.316;2023-08-12T07:31:08;5.32;;;3.53;;
9773;SDS011;4926;42.670;23.316;2023-08-12T07:33:35;3.97;;;3.20;;
9773;SDS011;4926;42.670;23.316;2023-08-12T07:36:02;5.18;;;3.67;;
9773;SDS011;4926;42.670;23.316;2023-08-12T07:38:29;6.40;;;3.17;;
9773;SDS011;4926;42.670;23.316;2023-08-12T07:41:00;3.20;;;2.85;;
9773;SDS011;4926;42.670;23.316;2023-08-12T07:43:28;4.00;;;3.00;;
9773;SDS011;4926;42.670;23.316;2023-08-12T07:45:55;4.18;;;3.13;;
9773;SDS011;4926;42.670;23.316;2023-08-12T07:48:22;3.92;;;3.15;;
9773;SDS011;4926;42.670;23.316;2023-08-12T07:50:54;5.55;;;3.50;;
9773;SDS011;4926;42.670;23.316;2023-08-12T07:53:24;7.18;;;3.78;;
9773;SDS011;4926;42.670;23.316;2023-08-12T07:55:51;4.18;;;3.53;;
9773;SDS011;4926;42.670;23.316;2023-08-12T07:58:20;4.60;;;3.08;;
9773;SDS011;4926;42.670;23.316;2023-08-12T08:00:47;4.75;;;3.22;;
9773;SDS011;4926;42.670;23.316;2023-08-12T08:03:14;3.60;;;3.30;;
9773;SDS011;4926;42.670;23.316;2023-08-12T08:05:40;4.85;;;3.50;;
9773;SDS011;4926;42.670;23.316;2023-08-12T08:08:07;4.55;;;3.20;;
9773;SDS011;4926;42.670;23.316;2023-08-12T08:10:34;3.10;;;2.80;;
9773;SDS011;4926;42.670;23.316;2023-08-12T08:13:01;4.75;;;3.13;;
9773;SDS011;4926;42.670;23.316;2023-08-12T08:15:29;4.60;;;3.38;;
9773;SDS011;4926;42.670;23.316;2023-08-12T08:17:56;4.03;;;3.20;;
9773;SDS011;4926;42.670;23.316;2023-08-12T08:20:25;4.15;;;3.13;;
9773;SDS011;4926;42.670;23.316;2023-08-12T08:23:00;3.95;;;2.85;;
9773;SDS011;4926;42.670;23.316;2023-08-12T08:25:26;4.35;;;3.67;;
9773;SDS011;4926;42.670;23.316;2023-08-12T08:27:53;5.13;;;2.97;;
9773;SDS011;4926;42.670;23.316;2023-08-12T08:30:21;4.47;;;2.80;;
9773;SDS011;4926;42.670;23.316;2023-08-12T08:32:50;4.38;;;2.85;;
9773;SDS011;4926;42.670;23.316;2023-08-12T08:35:19;3.55;;;3.20;;
9773;SDS011;4926;42.670;23.316;2023-08-12T08:37:45;3.97;;;3.00;;
9773;SDS011;4926;42.670;23.316;2023-08-12T08:40:15;3.05;;;2.55;;
9773;SDS011;4926;42.670;23.316;2023-08-12T08:42:42;3.53;;;2.80;;
9773;SDS011;4926;42.670;23.316;2023-08-12T08:45:11;3.92;;;3.03;;
9773;SDS011;4926;42.670;23.316;2023-08-12T08:47:38;3.40;;;2.83;;
9773;SDS011;4926;42.670;23.316;2023-08-12T08:50:10;4.25;;;3.08;;
9773;SDS011;4926;42.670;23.316;2023-08-12T08:52:39;3.60;;;3.20;;
9773;SDS011;4926;42.670;23.316;2023-08-12T08:55:07;3.58;;;2.72;;
9773;SDS011;4926;42.670;23.316;2023-08-12T08:57:40;3.10;;;2.75;;
9773;SDS011;4926;42.670;23.316;2023-08-12T09:00:10;6.65;;;2.60;;
9773;SDS011;4926;42.670;23.316;2023-08-12T09:02:38;3.50;;;2.80;;
9773;SDS011;4926;42.670;23.316;2023-08-12T09:05:08;2.97;;;2.67;;
9773;SDS011;4926;42.670;23.316;2023-08-12T09:07:36;4.68;;;2.70;;
9773;SDS011;4926;42.670;23.316;2023-08-12T09:10:06;3.47;;;2.60;;
9773;SDS011;4926;42.670;23.316;2023-08-12T09:12:35;3.15;;;2.63;;
9773;SDS011;4926;42.670;23.316;2023-08-12T09:15:02;2.83;;;2.50;;
9773;SDS011;4926;42.670;23.316;2023-08-12T09:17:31;5.32;;;2.95;;
9773;SDS011;4926;42.670;23.316;2023-08-12T09:19:58;3.60;;;2.65;;
9773;SDS011;4926;42.670;23.316;2023-08-12T09:22:26;3.70;;;2.47;;
9773;SDS011;4926;42.670;23.316;2023-08-12T09:24:55;3.20;;;2.70;;
9773;SDS011;4926;42.670;23.316;2023-08-12T09:27:23;3.30;;;3.00;;
9773;SDS011;4926;42.670;23.316;2023-08-12T09:29:50;3.20;;;2.80;;
9773;SDS011;4926;42.670;23.316;2023-08-12T09:32:21;3.03;;;2.70;;
9773;SDS011;4926;42.670;23.316;2023-08-12T09:34:51;3.60;;;2.60;;
9773;SDS011;4926;42.670;23.316;2023-08-12T09:37:19;2.97;;;2.72;;
9773;SDS011;4926;42.670;23.316;2023-08-12T09:39:48;5.63;;;2.65;;
9773;SDS011;4926;42.670;23.316;2023-08-12T09:42:17;3.47;;;3.00;;
9773;SDS011;4926;42.670;23.316;2023-08-12T09:44:44;4.00;;;2.60;;
9773;SDS011;4926;42.670;23.316;2023-08-12T09:47:16;3.53;;;2.50;;
9773;SDS011;4926;42.670;23.316;2023-08-12T09:49:43;3.78;;;2.33;;
9773;SDS011;4926;42.670;23.316;2023-08-12T09:52:11;2.78;;;2.58;;
9773;SDS011;4926;42.670;23.316;2023-08-12T09:54:38;5.53;;;2.63;;
9773;SDS011;4926;42.670;23.316;2023-08-12T09:57:14;3.10;;;2.63;;
9773;SDS011;4926;42.670;23.316;2023-08-12T09:59:46;3.33;;;3.03;;
9773;SDS011;4926;42.670;23.316;2023-08-12T10:02:14;2.75;;;2.25;;
9773;SDS011;4926;42.670;23.316;2023-08-12T10:04:44;3.45;;;3.15;;
9773;SDS011;4926;42.670;23.316;2023-08-12T10:07:11;3.15;;;2.60;;
9773;SDS011;4926;42.670;23.316;2023-08-12T10:09:39;3.78;;;2.70;;
9773;SDS011;4926;42.670;23.316;2023-08-12T10:12:06;5.80;;;3.00;;
9773;SDS011;4926;42.670;23.316;2023-08-12T10:14:36;3.40;;;2.58;;
9773;SDS011;4926;42.670;23.316;2023-08-12T10:17:04;3.47;;;3.17;;
9773;SDS011;4926;42.670;23.316;2023-08-12T10:19:31;2.67;;;2.47;;
9773;SDS011;4926;42.670;23.316;2023-08-12T10:22:03;2.55;;;2.35;;
9773;SDS011;4926;42.670;23.316;2023-08-12T10:24:37;4.63;;;2.72;;
9773;SDS011;4926;42.670;23.316;2023-08-12T10:27:05;2.60;;;2.40;;
9773;SDS011;4926;42.670;23.316;2023-08-12T10:29:32;2.83;;;2.63;;
9773;SDS011;4926;42.670;23.316;2023-08-12T10:32:03;4.13;;;2.72;;
9773;SDS011;4926;42.670;23.316;2023-08-12T10:34:31;5.43;;;2.58;;
9773;SDS011;4926;42.670;23.316;2023-08-12T10:37:00;5.10;;;2.75;;
9773;SDS011;4926;42.670;23.316;2023-08-12T10:39:28;2.72;;;2.50;;
9773;SDS011;4926;42.670;23.316;2023-08-12T10:41:58;3.45;;;2.97;;
9773;SDS011;4926;42.670;23.316;2023-08-12T10:44:27;2.92;;;2.72;;
9773;SDS011;4926;42.670;23.316;2023-08-12T10:47:07;3.05;;;2.65;;
9773;SDS011;4926;42.670;23.316;2023-08-12T10:49:37;2.42;;;2.22;;
9773;SDS011;4926;42.670;23.316;2023-08-12T10:52:05;2.95;;;2.50;;
9773;SDS011;4926;42.670;23.316;2023-08-12T10:54:31;3.35;;;2.80;;
9773;SDS011;4926;42.670;23.316;2023-08-12T10:57:05;3.92;;;2.67;;
9773;SDS011;4926;42.670;23.316;2023-08-12T10:59:52;2.92;;;2.40;;
9773;SDS011;4926;42.670;23.316;2023-08-12T11:02:20;4.45;;;2.58;;
9773;SDS011;4926;42.670;23.316;2023-08-12T11:04:54;2.83;;;2.53;;
9773;SDS011;4926;42.670;23.316;2023-08-12T11:07:28;3.03;;;2.58;;
9773;SDS011;4926;42.670;23.316;2023-08-12T11:09:59;3.00;;;2.70;;
9773;SDS011;4926;42.670;23.316;2023-08-12T11:12:30;3.03;;;2.70;;
9773;SDS011;4926;42.670;23.316;2023-08-12T11:15:01;4.13;;;2.20;;
9773;SDS011;4926;42.670;23.316;2023-08-12T11:17:33;4.68;;;2.20;;
9773;SDS011;4926;42.670;23.316;2023-08-12T11:20:02;4.93;;;2.47;;
9773;SDS011;4926;42.670;23.316;2023-08-12T11:22:35;2.25;;;2.08;;
9773;SDS011;4926;42.670;23.316;2023-08-12T11:25:04;2.95;;;1.95;;
9773;SDS011;4926;42.670;23.316;2023-08-12T11:27:40;2.67;;;2.17;;
9773;SDS011;4926;42.670;23.316;2023-08-12T11:30:09;4.57;;;2.30;;
9773;SDS011;4926;42.670;23.316;2023-08-12T11:32:38;3.10;;;2.30;;
9773;SDS011;4926;42.670;23.316;2023-08-12T11:35:06;2.78;;;2.17;;
9773;SDS011;4926;42.670;23.316;2023-08-12T11:37:37;2.67;;;2.42;;
9773;SDS011;4926;42.670;23.316;2023-08-12T11:40:08;2.33;;;2.10;;
9773;SDS011;4926;42.670;23.316;2023-08-12T11:42:38;3.47;;;3.17;;
9773;SDS011;4926;42.670;23.316;2023-08-12T11:45:06;3.85;;;2.17;;
9773;SDS011;4926;42.670;23.316;2023-08-12T11:47:51;3.20;;;2.90;;
9773;SDS011;4926;42.670;23.316;2023-08-12T11:50:20;3.95;;;2.30;;
9773;SDS011;4926;42.670;23.316;2023-08-12T11:52:47;2.30;;;2.00;;
9773;SDS011;4926;42.670;23.316;2023-08-12T11:55:15;2.60;;;2.28;;
9773;SDS011;4926;42.670;23.316;2023-08-12T11:57:43;3.13;;;2.00;;
9773;SDS011;4926;42.670;23.316;2023-08-12T12:00:11;2.05;;;1.85;;
9773;SDS011;4926;42.670;23.316;2023-08-12T12:02:40;5.40;;;2.17;;
9773;SDS011;4926;42.670;23.316;2023-08-12T12:05:10;2.20;;;1.90;;
9773;SDS011;4926;42.670;23.316;2023-08-12T12:07:40;3.45;;;2.00;;
9773;SDS011;4926;42.670;23.316;2023-08-12T12:10:12;2.00;;;1.90;;
9773;SDS011;4926;42.670;23.316;2023-08-12T12:12:39;4.05;;;1.77;;
9773;SDS011;4926;42.670;23.316;2023-08-12T12:15:08;3.67;;;2.10;;
9773;SDS011;4926;42.670;23.316;2023-08-12T12:17:38;2.60;;;2.10;;
9773;SDS011;4926;42.670;23.316;2023-08-12T12:20:06;2.08;;;1.90;;
9773;SDS011;4926;42.670;23.316;2023-08-12T12:22:37;2.33;;;2.05;;
9773;SDS011;4926;42.670;23.316;2023-08-12T12:25:07;3.33;;;2.00;;
9773;SDS011;4926;42.670;23.316;2023-08-12T12:27:36;3.55;;;2.67;;
9773;SDS011;4926;42.670;23.316;2023-08-12T12:30:07;3.05;;;2.20;;
9773;SDS011;4926;42.670;23.316;2023-08-12T12:32:35;2.60;;;2.38;;
9773;SDS011;4926;42.670;23.316;2023-08-12T12:35:02;3.45;;;2.20;;
9773;SDS011;4926;42.670;23.316;2023-08-12T12:37:32;4.47;;;2.35;;
9773;SDS011;4926;42.670;23.316;2023-08-12T12:40:00;2.45;;;2.20;;
9773;SDS011;4926;42.670;23.316;2023-08-12T12:42:28;2.30;;;2.10;;
9773;SDS011;4926;42.670;23.316;2023-08-12T12:44:54;2.20;;;2.00;;
9773;SDS011;4926;42.670;23.316;2023-08-12T12:47:21;2.75;;;2.25;;
9773;SDS011;4926;42.670;23.316;2023-08-12T12:49:51;3.83;;;2.65;;
9773;SDS011;4926;42.670;23.316;2023-08-12T12:52:17;3.55;;;2.30;;
9773;SDS011;4926;42.670;23.316;2023-08-12T12:54:46;2.20;;;2.00;;
9773;SDS011;4926;42.670;23.316;2023-08-12T12:57:16;3.17;;;2.10;;
9773;SDS011;4926;42.670;23.316;2023-08-12T12:59:42;3.08;;;2.15;;
9773;SDS011;4926;42.670;23.316;2023-08-12T13:02:12;2.40;;;2.20;;
9773;SDS011;4926;42.670;23.316;2023-08-12T13:04:38;3.25;;;2.20;;
9773;SDS011;4926;42.670;23.316;2023-08-12T13:07:05;2.42;;;2.22;;
9773;SDS011;4926;42.670;23.316;2023-08-12T13:09:32;2.47;;;2.28;;
9773;SDS011;4926;42.670;23.316;2023-08-12T13:11:58;4.45;;;2.10;;
9773;SDS011;4926;42.670;23.316;2023-08-12T13:14:27;2.33;;;2.13;;
9773;SDS011;4926;42.670;23.316;2023-08-12T13:16:55;2.92;;;2.25;;
9773;SDS011;4926;42.670;23.316;2023-08-12T13:19:22;2.83;;;2.08;;
9773;SDS011;4926;42.670;23.316;2023-08-12T13:21:48;2.10;;;2.00;;
9773;SDS011;4926;42.670;23.316;2023-08-12T13:24:18;2.20;;;2.10;;
9773;SDS011;4926;42.670;23.316;2023-08-12T13:26:45;2.70;;;2.10;;
9773;SDS011;4926;42.670;23.316;2023-08-12T13:29:12;2.50;;;2.28;;
9773;SDS011;4926;42.670;23.316;2023-08-12T13:31:40;2.40;;;2.17;;
9773;SDS011;4926;42.670;23.316;2023-08-12T13:34:07;2.88;;;2.33;;
9773;SDS011;4926;42.670;23.316;2023-08-12T13:36:36;2.20;;;2.00;;
9773;SDS011;4926;42.670;23.316;2023-08-12T13:39:02;2.45;;;2.13;;
9773;SDS011;4926;42.670;23.316;2023-08-12T13:41:30;2.63;;;2.40;;
9773;SDS011;4926;42.670;23.316;2023-08-12T13:44:00;2.30;;;2.10;;
9773;SDS011;4926;42.670;23.316;2023-08-12T13:46:27;2.30;;;2.10;;
9773;SDS011;4926;42.670;23.316;2023-08-12T13:48:57;4.13;;;2.40;;
9773;SDS011;4926;42.670;23.316;2023-08-12T13:51:24;2.85;;;1.92;;
9773;SDS011;4926;42.670;23.316;2023-08-12T13:53:54;2.47;;;2.20;;
9773;SDS011;4926;42.670;23.316;2023-08-12T13:56:23;2.40;;;2.20;;
9773;SDS011;4926;42.670;23.316;2023-08-12T13:58:50;3.10;;;2.22;;
9773;SDS011;4926;42.670;23.316;2023-08-12T14:01:16;4.80;;;2.28;;
9773;SDS011;4926;42.670;23.316;2023-08-12T14:03:43;4.03;;;2.25;;
9773;SDS011;4926;42.670;23.316;2023-08-12T14:06:11;3.13;;;2.08;;
9773;SDS011;4926;42.670;23.316;2023-08-12T14:08:38;3.15;;;2.20;;
9773;SDS011;4926;42.670;23.316;2023-08-12T14:11:04;3.22;;;2.22;;
9773;SDS011;4926;42.670;23.316;2023-08-12T14:13:31;3.92;;;2.60;;
9773;SDS011;4926;42.670;23.316;2023-08-12T14:15:58;3.05;;;2.22;;
9773;SDS011;4926;42.670;23.316;2023-08-12T14:18:25;2.33;;;2.00;;
9773;SDS011;4926;42.670;23.316;2023-08-12T14:20:51;4.75;;;2.20;;
9773;SDS011;4926;42.670;23.316;2023-08-12T14:23:21;2.40;;;2.20;;
9773;SDS011;4926;42.670;23.316;2023-08-12T14:25:48;4.40;;;2.15;;
9773;SDS011;4926;42.670;23.316;2023-08-12T14:28:14;2.15;;;1.95;;
9773;SDS011;4926;42.670;23.316;2023-08-12T14:30:41;4.60;;;2.10;;
9773;SDS011;4926;42.670;23.316;2023-08-12T14:33:10;3.17;;;2.30;;
9773;SDS011;4926;42.670;23.316;2023-08-12T14:35:39;2.55;;;2.35;;
9773;SDS011;4926;42.670;23.316;2023-08-12T14:38:06;3.92;;;2.25;;
9773;SDS011;4926;42.670;23.316;2023-08-12T14:40:34;2.58;;;2.20;;
9773;SDS011;4926;42.670;23.316;2023-08-12T14:43:03;1.90;;;1.80;;
9773;SDS011;4926;42.670;23.316;2023-08-12T14:45:30;2.28;;;2.08;;
9773;SDS011;4926;42.670;23.316;2023-08-12T14:47:56;3.88;;;2.10;;
9773;SDS011;4926;42.670;23.316;2023-08-12T14:50:23;2.28;;;2.08;;
9773;SDS011;4926;42.670;23.316;2023-08-12T14:52:49;9.05;;;6.28;;
9773;SDS011;4926;42.670;23.316;2023-08-12T14:55:16;2.63;;;2.25;;
9773;SDS011;4926;42.670;23.316;2023-08-12T14:57:48;2.47;;;2.22;;
9773;SDS011;4926;42.670;23.316;2023-08-12T15:00:15;3.70;;;2.13;;
9773;SDS011;4926;42.670;23.316;2023-08-12T15:02:45;2.67;;;2.47;;
9773;SDS011;4926;42.670;23.316;2023-08-12T15:05:11;3.38;;;3.08;;
9773;SDS011;4926;42.670;23.316;2023-08-12T15:07:38;2.42;;;2.22;;
9773;SDS011;4926;42.670;23.316;2023-08-12T15:10:05;1.90;;;1.80;;